Time;durP1;ratioP1;P1;durP2;ratioP2;P2;SDS_P1;SDS_P2;PMS_P1;PMS_P2;Temp;Humidity;BMP_temperature;BMP_pressure;BME280_temperature;BME280_humidity;BME280_pressure;Samples;Min_cycle;Max_cycle;Signal;HPM_P1;HPM_P2
2020/12/17 00:01:44;;;;;;;27.85;25.52;;;6.90;97.80;;;;;;5012362;28;20220;-77
2020/12/17 00:04:10;;;;;;;1227.50;165.60;;;6.90;97.40;;;;;;5012701;28;20198;-77
2020/12/17 00:06:36;;;;;;;27.73;25.23;;;6.90;97.60;;;;;;5012035;28;20228;-77
2020/12/17 00:09:04;;;;;;;28.63;26.27;;;6.90;97.70;;;;;;5012682;28;20201;-77
2020/12/17 00:11:31;;;;;;;27.33;24.80;;;7.00;97.20;;;;;;5016477;28;20198;-77
2020/12/17 00:13:57;;;;;;;27.20;25.00;;;6.90;96.60;;;;;;5016063;28;20194;-77
2020/12/17 00:16:23;;;;;;;27.23;25.00;;;6.90;96.80;;;;;;5015930;28;20256;-77
2020/12/17 00:18:50;;;;;;;27.83;25.48;;;6.90;96.80;;;;;;5015759;28;20224;-77
2020/12/17 00:21:20;;;;;;;28.63;26.27;;;6.90;97.00;;;;;;5015922;28;20426;-77
2020/12/17 00:23:47;;;;;;;168.68;36.38;;;6.90;97.10;;;;;;5016164;28;20205;-77
2020/12/17 00:26:14;;;;;;;27.45;25.10;;;6.90;97.50;;;;;;5015883;28;20222;-77
2020/12/17 00:28:40;;;;;;;457.02;76.10;;;6.90;98.10;;;;;;5015697;28;20194;-77
2020/12/17 00:31:06;;;;;;;114.50;31.40;;;6.90;97.70;;;;;;5015599;28;20660;-77
2020/12/17 00:33:33;;;;;;;29.08;25.98;;;7.00;97.70;;;;;;5015688;28;20200;-77
2020/12/17 00:35:59;;;;;;;24.88;23.08;;;7.00;98.00;;;;;;5015629;28;20201;-77
2020/12/17 00:38:25;;;;;;;25.38;23.38;;;7.00;97.90;;;;;;5015703;28;20216;-77
2020/12/17 00:40:52;;;;;;;26.60;24.40;;;7.00;97.30;;;;;;5015475;28;20220;-77
2020/12/17 00:43:19;;;;;;;27.50;25.10;;;7.00;96.80;;;;;;5015742;28;20229;-77
2020/12/17 00:45:45;;;;;;;24.25;22.35;;;7.00;96.50;;;;;;5015547;28;20680;-77
2020/12/17 00:48:12;;;;;;;25.17;23.00;;;7.10;96.00;;;;;;5015839;28;20205;-77
2020/12/17 00:50:38;;;;;;;25.88;23.75;;;7.10;95.70;;;;;;5015322;28;20671;-77
2020/12/17 00:53:04;;;;;;;26.35;24.20;;;6.90;97.30;;;;;;5015259;28;20198;-77
2020/12/17 00:55:31;;;;;;;53.55;25.90;;;6.90;98.30;;;;;;5015381;28;20197;-77
2020/12/17 00:57:57;;;;;;;24.20;22.30;;;6.90;99.50;;;;;;5015558;28;20232;-77
2020/12/17 01:00:24;;;;;;;25.27;23.30;;;6.90;97.80;;;;;;5015406;28;20380;-77
2020/12/17 01:02:50;;;;;;;26.33;24.15;;;6.90;97.90;;;;;;5016657;28;20199;-77
2020/12/17 01:05:17;;;;;;;25.17;23.33;;;6.80;97.70;;;;;;5017122;28;20205;-78
2020/12/17 01:07:43;;;;;;;27.05;24.58;;;6.80;97.10;;;;;;5015214;28;20699;-77
2020/12/17 01:10:09;;;;;;;24.77;22.90;;;6.80;96.60;;;;;;5015304;28;20652;-77
2020/12/17 01:12:39;;;;;;;25.60;23.52;;;6.80;96.00;;;;;;5014800;28;20203;-77
2020/12/17 01:15:05;;;;;;;23.58;21.90;;;6.70;96.40;;;;;;5015031;28;20588;-77
2020/12/17 01:17:33;;;;;;;23.88;22.10;;;6.70;95.80;;;;;;5014609;28;20579;-77
2020/12/17 01:19:59;;;;;;;24.83;22.95;;;6.70;95.50;;;;;;5014524;28;20336;-77
2020/12/17 01:22:25;;;;;;;24.35;22.23;;;6.70;95.30;;;;;;5014966;28;20204;-77
2020/12/17 01:24:52;;;;;;;23.88;22.00;;;6.70;95.30;;;;;;5015032;28;20295;-77
2020/12/17 01:27:18;;;;;;;24.65;22.65;;;6.70;95.20;;;;;;5014463;28;20218;-77
2020/12/17 01:29:44;;;;;;;25.90;23.73;;;6.60;94.60;;;;;;5014916;28;20209;-77
2020/12/17 01:32:11;;;;;;;24.17;22.38;;;6.60;94.70;;;;;;5014716;28;20680;-77
2020/12/17 01:34:38;;;;;;;24.63;22.73;;;6.50;94.60;;;;;;5014460;28;20215;-77
2020/12/17 01:37:04;;;;;;;25.58;23.48;;;6.50;94.70;;;;;;5014519;28;20218;-77
2020/12/17 01:39:31;;;;;;;24.50;22.40;;;6.50;94.80;;;;;;5014925;28;20701;-77
2020/12/17 01:41:57;;;;;;;24.77;22.88;;;6.40;94.50;;;;;;5017050;28;20212;-77
2020/12/17 01:44:23;;;;;;;25.27;23.42;;;6.50;94.30;;;;;;5014689;28;20194;-77
2020/12/17 01:46:50;;;;;;;1661.18;241.23;;;6.40;94.50;;;;;;5014408;28;20255;-77
2020/12/17 01:49:22;;;;;;;24.45;22.73;;;6.30;96.30;;;;;;5014655;28;20202;-77
2020/12/17 01:51:50;;;;;;;24.52;22.70;;;6.20;96.80;;;;;;5014394;28;20190;-77
2020/12/17 01:54:16;;;;;;;24.45;22.45;;;6.30;96.10;;;;;;5014333;28;20574;-77
2020/12/17 01:56:47;;;;;;;24.73;22.65;;;6.20;95.70;;;;;;5014120;28;20220;-77
2020/12/17 01:59:21;;;;;;;24.30;22.50;;;6.20;95.60;;;;;;5015020;28;20217;-77
2020/12/17 02:01:49;;;;;;;24.42;22.73;;;6.20;95.00;;;;;;5013957;28;20214;-77
2020/12/17 02:04:16;;;;;;;25.58;23.52;;;6.10;95.00;;;;;;5014307;28;20792;-77
2020/12/17 02:06:43;;;;;;;25.35;23.30;;;6.10;95.10;;;;;;5013710;28;20287;-77
2020/12/17 02:09:10;;;;;;;25.38;23.50;;;6.00;95.10;;;;;;5014143;28;20566;-77
2020/12/17 02:11:36;;;;;;;27.67;25.42;;;6.00;94.80;;;;;;5013885;28;20307;-77
2020/12/17 02:14:03;;;;;;;24.63;22.70;;;6.00;94.90;;;;;;5014119;28;20671;-77
2020/12/17 02:16:30;;;;;;;25.52;23.73;;;6.00;95.00;;;;;;5013806;28;20226;-77
2020/12/17 02:18:56;;;;;;;23.35;21.65;;;6.00;95.00;;;;;;5013930;28;20253;-77
2020/12/17 02:21:23;;;;;;;25.80;23.80;;;6.00;95.00;;;;;;5013626;28;20230;-77
2020/12/17 02:23:49;;;;;;;24.42;22.73;;;6.00;94.90;;;;;;5013501;28;20186;-77
2020/12/17 02:26:16;;;;;;;26.00;23.67;;;6.00;94.50;;;;;;5013574;28;20298;-77
2020/12/17 02:28:43;;;;;;;24.75;22.83;;;5.90;94.50;;;;;;5013637;28;20200;-77
2020/12/17 02:31:10;;;;;;;24.98;22.98;;;5.80;94.70;;;;;;5013701;28;20664;-77
2020/12/17 02:33:36;;;;;;;23.88;22.17;;;5.80;94.70;;;;;;5012640;28;20204;-77
2020/12/17 02:36:02;;;;;;;24.20;22.50;;;5.80;94.80;;;;;;5013620;28;20222;-77
2020/12/17 02:38:29;;;;;;;25.95;23.65;;;5.70;95.00;;;;;;5013519;28;20206;-77
2020/12/17 02:40:55;;;;;;;24.35;22.55;;;5.70;94.80;;;;;;5013077;28;20229;-77
2020/12/17 02:43:22;;;;;;;25.80;23.70;;;5.80;94.80;;;;;;5013681;28;20570;-77
2020/12/17 02:45:50;;;;;;;25.83;23.52;;;5.80;94.60;;;;;;5013133;28;20190;-77
2020/12/17 02:48:17;;;;;;;24.30;22.35;;;5.70;94.70;;;;;;5013608;28;20211;-77
2020/12/17 02:50:44;;;;;;;23.38;21.75;;;5.70;94.80;;;;;;5013200;28;20673;-77
2020/12/17 02:53:11;;;;;;;25.63;23.70;;;5.70;94.60;;;;;;5013296;28;20608;-77
2020/12/17 02:55:38;;;;;;;24.98;22.98;;;5.70;94.40;;;;;;5012867;28;20240;-77
2020/12/17 02:58:05;;;;;;;25.25;23.40;;;5.70;94.10;;;;;;5013196;28;20624;-77
2020/12/17 03:00:33;;;;;;;25.40;23.30;;;5.70;94.10;;;;;;5013301;28;20695;-77
2020/12/17 03:02:59;;;;;;;25.80;23.88;;;5.60;94.20;;;;;;5013187;28;20207;-77
2020/12/17 03:05:26;;;;;;;24.35;22.55;;;5.50;94.70;;;;;;5012707;28;20614;-77
2020/12/17 03:07:52;;;;;;;24.45;22.45;;;5.50;94.80;;;;;;5013286;28;20645;-77
2020/12/17 03:10:19;;;;;;;25.85;23.75;;;5.50;95.00;;;;;;5013117;28;20206;-77
2020/12/17 03:12:45;;;;;;;24.90;22.85;;;5.50;95.00;;;;;;5012872;28;20196;-77
2020/12/17 03:15:13;;;;;;;25.55;23.52;;;5.50;94.80;;;;;;5012971;28;20241;-77
2020/12/17 03:17:41;;;;;;;27.02;25.00;;;5.50;94.90;;;;;;5012354;28;20684;-77
2020/12/17 03:20:09;;;;;;;25.92;23.80;;;5.50;95.00;;;;;;5013043;28;20660;-77
2020/12/17 03:22:36;;;;;;;23.70;21.90;;;5.50;94.90;;;;;;5012806;28;20204;-77
2020/12/17 03:25:03;;;;;;;24.15;22.42;;;5.50;94.80;;;;;;5012975;28;20657;-77
2020/12/17 03:27:30;;;;;;;25.10;23.20;;;5.50;94.80;;;;;;5012845;28;20223;-77
2020/12/17 03:29:56;;;;;;;24.33;22.60;;;5.50;95.20;;;;;;5013058;28;20202;-77
2020/12/17 03:32:22;;;;;;;29.52;22.85;;;5.60;95.20;;;;;;5012720;28;20672;-77
2020/12/17 03:34:49;;;;;;;24.02;22.13;;;5.50;95.20;;;;;;5013025;28;20194;-77
2020/12/17 03:37:16;;;;;;;26.20;24.20;;;5.50;95.90;;;;;;5014539;28;20223;-77
2020/12/17 03:39:42;;;;;;;24.80;22.70;;;5.50;95.80;;;;;;5012309;28;20195;-77
2020/12/17 03:42:09;;;;;;;24.73;23.02;;;5.60;95.40;;;;;;5012762;28;20283;-77
2020/12/17 03:44:35;;;;;;;26.02;24.13;;;5.70;95.00;;;;;;5015927;28;20672;-77
2020/12/17 03:47:02;;;;;;;24.77;22.80;;;5.70;94.80;;;;;;5016877;28;20222;-77
2020/12/17 03:49:28;;;;;;;25.40;23.30;;;5.70;94.70;;;;;;5016464;28;20194;-77
2020/12/17 03:51:55;;;;;;;25.63;23.30;;;5.60;94.90;;;;;;5016854;28;20202;-77
2020/12/17 03:54:21;;;;;;;24.83;23.02;;;5.60;95.30;;;;;;5016559;28;20238;-77
2020/12/17 03:56:48;;;;;;;25.15;23.25;;;5.60;95.30;;;;;;5016447;28;20217;-77
2020/12/17 03:59:14;;;;;;;24.35;22.63;;;5.60;95.40;;;;;;5016343;28;20198;-77
2020/12/17 04:01:40;;;;;;;25.50;23.55;;;5.70;95.00;;;;;;5016472;28;20584;-77
2020/12/17 04:04:07;;;;;;;24.65;22.88;;;5.80;94.90;;;;;;5016493;28;20662;-77
2020/12/17 04:06:33;;;;;;;26.50;24.42;;;5.70;94.90;;;;;;5015940;28;20280;-77
2020/12/17 04:09:00;;;;;;;25.38;23.60;;;5.80;94.60;;;;;;5016443;28;20205;-77
2020/12/17 04:11:26;;;;;;;26.38;24.08;;;5.80;94.30;;;;;;5017281;28;20197;-77
2020/12/17 04:13:53;;;;;;;23.77;22.10;;;5.70;94.40;;;;;;5018613;28;20227;-77
2020/12/17 04:16:19;;;;;;;24.20;22.48;;;5.70;94.00;;;;;;5016687;28;20220;-77
2020/12/17 04:18:46;;;;;;;26.50;24.50;;;5.70;94.00;;;;;;5016283;28;20654;-77
2020/12/17 04:21:12;;;;;;;26.63;24.42;;;5.70;94.20;;;;;;5016013;28;20720;-77
2020/12/17 04:23:38;;;;;;;25.98;23.90;;;5.70;94.20;;;;;;5016734;28;20200;-77
2020/12/17 04:26:11;;;;;;;24.70;22.92;;;5.70;94.10;;;;;;5023128;28;20230;-77
2020/12/17 04:28:38;;;;;;;25.10;23.30;;;5.70;94.00;;;;;;5016670;28;20207;-77
2020/12/17 04:31:04;;;;;;;26.40;24.48;;;5.70;94.10;;;;;;5016114;28;20192;-77
2020/12/17 04:33:30;;;;;;;26.25;24.25;;;5.70;94.00;;;;;;5015489;28;20207;-77
2020/12/17 04:35:57;;;;;;;26.02;24.13;;;5.70;94.20;;;;;;5015759;28;20681;-77
2020/12/17 04:38:23;;;;;;;24.48;22.58;;;5.60;94.40;;;;;;5015863;28;20283;-77
2020/12/17 04:40:50;;;;;;;26.52;24.58;;;5.70;94.30;;;;;;5015845;28;20671;-77
2020/12/17 04:43:17;;;;;;;24.95;23.02;;;5.70;94.00;;;;;;5015648;28;20211;-77
2020/12/17 04:45:43;;;;;;;25.33;23.42;;;5.70;93.60;;;;;;5015638;28;20212;-77
2020/12/17 04:48:16;;;;;;;26.30;24.10;;;5.70;93.60;;;;;;5015693;28;20225;-77
2020/12/17 04:50:44;;;;;;;25.63;23.63;;;5.70;93.60;;;;;;4995856;28;20204;-77
2020/12/17 04:53:15;;;;;;;26.45;24.15;;;5.60;94.40;;;;;;4998471;28;20198;-77
2020/12/17 04:55:43;;;;;;;26.42;24.40;;;5.60;94.10;;;;;;5014615;28;20272;-77
2020/12/17 04:58:10;;;;;;;26.23;24.20;;;5.60;93.90;;;;;;5015492;28;20583;-77
2020/12/17 05:00:40;;;;;;;23.15;21.35;;;5.70;93.60;;;;;;5015417;28;20305;-77
2020/12/17 05:03:12;;;;;;;27.08;24.92;;;5.70;93.50;;;;;;5015205;28;20661;-77
2020/12/17 05:05:38;;;;;;;25.92;23.90;;;5.70;93.50;;;;;;5014788;28;20256;-77
2020/12/17 05:08:05;;;;;;;23.80;21.90;;;5.70;93.50;;;;;;5015226;28;20218;-77
2020/12/17 05:10:31;;;;;;;26.48;24.35;;;5.70;93.70;;;;;;5015077;28;20195;-77
2020/12/17 05:12:58;;;;;;;26.58;24.60;;;5.70;93.40;;;;;;5015147;28;20676;-77
2020/12/17 05:15:25;;;;;;;27.10;24.90;;;5.70;93.40;;;;;;5014988;28;20200;-77
2020/12/17 05:17:52;;;;;;;27.60;25.48;;;5.70;93.10;;;;;;5014872;28;20725;-77
2020/12/17 05:20:19;;;;;;;26.88;24.83;;;5.70;93.20;;;;;;5014756;28;20221;-77
2020/12/17 05:22:46;;;;;;;25.92;23.85;;;5.70;92.90;;;;;;5015047;28;20679;-77
2020/12/17 05:25:13;;;;;;;26.88;24.73;;;5.60;93.30;;;;;;5015156;28;20204;-77
2020/12/17 05:27:41;;;;;;;25.00;23.08;;;5.50;93.60;;;;;;5015085;28;20250;-77
2020/12/17 05:30:07;;;;;;;26.50;24.42;;;5.60;93.60;;;;;;5014577;28;20210;-77
2020/12/17 05:32:35;;;;;;;26.05;23.95;;;5.60;93.30;;;;;;5016267;28;20194;-77
2020/12/17 05:35:03;;;;;;;26.90;24.65;;;5.60;93.20;;;;;;5015484;28;20198;-77
2020/12/17 05:37:31;;;;;;;26.30;24.00;;;5.60;93.10;;;;;;5014562;28;20318;-77
2020/12/17 05:40:00;;;;;;;27.70;25.40;;;5.60;92.90;;;;;;5014406;28;20230;-77
2020/12/17 05:42:27;;;;;;;26.13;24.17;;;5.60;92.90;;;;;;5014509;28;20225;-77
2020/12/17 05:44:53;;;;;;;25.88;23.67;;;5.50;93.10;;;;;;5014580;28;20252;-77
2020/12/17 05:47:19;;;;;;;27.95;25.83;;;5.50;93.30;;;;;;5014303;28;20557;-77
2020/12/17 05:49:46;;;;;;;26.85;24.65;;;5.50;93.40;;;;;;5014210;28;20660;-77
2020/12/17 05:52:14;;;;;;;26.92;24.83;;;5.60;93.10;;;;;;5014469;28;20560;-77
2020/12/17 05:54:43;;;;;;;27.50;25.40;;;5.60;93.00;;;;;;5014329;28;20196;-77
2020/12/17 05:57:11;;;;;;;26.13;24.17;;;5.60;93.20;;;;;;5013705;28;20216;-77
2020/12/17 05:59:38;;;;;;;27.60;25.60;;;5.60;92.90;;;;;;5014313;28;20208;-77
2020/12/17 06:02:23;;;;;;;27.10;25.10;;;5.60;92.90;;;;;;4994696;28;20232;-77
2020/12/17 06:05:05;;;;;;;25.85;23.73;;;5.70;92.50;;;;;;4994852;28;20203;-77
2020/12/17 06:07:39;;;;;;;26.48;24.58;;;5.70;92.20;;;;;;4994187;28;20613;-77
2020/12/17 06:10:06;;;;;;;26.75;24.55;;;5.70;92.20;;;;;;4997904;28;20560;-77
2020/12/17 06:12:34;;;;;;;26.98;24.85;;;5.70;91.90;;;;;;5013875;28;20194;-77
2020/12/17 06:15:03;;;;;;;26.42;24.35;;;5.70;92.20;;;;;;5013798;28;20204;-77
2020/12/17 06:17:36;;;;;;;26.83;24.80;;;5.60;92.30;;;;;;5013790;28;20224;-77
2020/12/17 06:20:03;;;;;;;27.00;24.85;;;5.60;93.00;;;;;;5013739;28;20200;-77
2020/12/17 06:22:30;;;;;;;26.35;24.25;;;5.60;94.60;;;;;;5013865;28;20223;-77
2020/12/17 06:24:58;;;;;;;26.75;24.50;;;5.70;93.20;;;;;;5013869;28;20724;-77
2020/12/17 06:27:30;;;;;;;27.55;25.25;;;5.70;92.90;;;;;;5013609;28;20214;-77
2020/12/17 06:30:05;;;;;;;26.73;24.63;;;5.70;93.00;;;;;;5013473;28;20205;-77
2020/12/17 06:32:34;;;;;;;26.02;24.02;;;5.70;92.70;;;;;;5013678;28;20661;-77
2020/12/17 06:35:05;;;;;;;25.95;23.95;;;5.70;92.50;;;;;;5013876;28;20198;-77
2020/12/17 06:37:35;;;;;;;23.95;22.02;;;5.80;92.40;;;;;;5013078;28;20260;-77
2020/12/17 06:40:03;;;;;;;24.17;22.10;;;5.80;92.20;;;;;;5013618;28;20209;-77
2020/12/17 06:42:35;;;;;;;26.08;24.02;;;5.90;91.70;;;;;;5013319;28;20767;-77
2020/12/17 06:45:02;;;;;;;59.50;27.13;;;5.90;91.00;;;;;;5013591;28;20209;-77
2020/12/17 06:47:29;;;;;;;24.00;22.20;;;5.80;91.20;;;;;;5013233;28;20311;-78
2020/12/17 06:50:16;;;;;;;25.38;23.00;;;5.80;90.90;;;;;;5013439;28;20253;-77
2020/12/17 06:53:03;;;;;;;25.63;23.55;;;5.80;91.00;;;;;;5013100;28;20193;-77
2020/12/17 06:55:39;;;;;;;25.00;23.33;;;5.80;90.80;;;;;;5013320;28;20211;-77
2020/12/17 06:58:06;;;;;;;23.88;22.05;;;5.70;91.20;;;;;;5013330;28;20225;-77
2020/12/17 07:00:32;;;;;;;22.90;21.17;;;5.70;91.20;;;;;;5013240;28;20198;-78
2020/12/17 07:02:59;;;;;;;23.55;21.65;;;5.80;91.10;;;;;;5012688;28;20286;-78
2020/12/17 07:05:36;;;;;;;24.98;22.88;;;5.80;90.70;;;;;;5013016;28;20200;-77
2020/12/17 07:08:03;;;;;;;23.80;22.10;;;5.80;90.60;;;;;;5013280;28;20279;-77
2020/12/17 07:10:30;;;;;;;23.35;21.75;;;5.70;91.10;;;;;;5013001;28;20656;-77
2020/12/17 07:12:58;;;;;;;22.88;21.27;;;5.70;91.20;;;;;;5013393;28;20283;-77
2020/12/17 07:15:33;;;;;;;24.40;22.27;;;5.80;90.90;;;;;;5016335;28;20211;-78
2020/12/17 07:18:22;;;;;;;23.10;21.60;;;5.80;91.30;;;;;;5014591;28;20306;-77
2020/12/17 07:20:53;;;;;;;21.75;20.40;;;6.00;91.30;;;;;;5012528;28;20230;-77
2020/12/17 07:23:21;;;;;;;22.63;21.13;;;6.00;90.50;;;;;;5019745;28;20230;-78
2020/12/17 07:25:52;;;;;;;22.10;20.60;;;6.00;89.90;;;;;;5020450;28;20208;-78
2020/12/17 07:28:25;;;;;;;23.13;21.58;;;6.00;89.90;;;;;;5017531;28;20200;-77
2020/12/17 07:30:53;;;;;;;21.52;20.10;;;6.00;89.80;;;;;;5015711;28;20190;-78
2020/12/17 07:33:42;;;;;;;20.80;19.45;;;6.00;89.80;;;;;;4993362;28;20192;-77
2020/12/17 07:36:10;;;;;;;21.23;19.90;;;6.00;89.80;;;;;;4996710;28;20217;-77
2020/12/17 07:38:37;;;;;;;20.95;19.45;;;6.00;89.90;;;;;;5013583;28;20204;-77
2020/12/17 07:41:04;;;;;;;19.80;18.60;;;6.10;89.70;;;;;;5012337;28;20628;-77
2020/12/17 07:43:40;;;;;;;20.25;18.85;;;6.10;89.60;;;;;;5013045;28;20200;-77
2020/12/17 07:46:08;;;;;;;18.88;17.67;;;6.10;89.90;;;;;;5012492;28;20575;-77
2020/12/17 07:48:39;;;;;;;19.77;18.58;;;6.20;89.90;;;;;;5012778;28;20282;-77
2020/12/17 07:51:25;;;;;;;20.05;18.65;;;6.20;89.70;;;;;;5012521;28;20216;-77
2020/12/17 07:53:52;;;;;;;19.10;17.90;;;6.30;89.60;;;;;;5011761;28;20198;-77
2020/12/17 07:56:20;;;;;;;19.88;18.50;;;6.30;89.60;;;;;;5012398;28;20247;-77
2020/12/17 07:58:48;;;;;;;17.50;16.58;;;6.40;89.50;;;;;;5012575;28;20223;-77
2020/12/17 08:01:15;;;;;;;18.30;17.20;;;6.50;89.50;;;;;;5012599;28;20279;-77
2020/12/17 08:03:43;;;;;;;18.98;17.63;;;6.60;89.30;;;;;;5011673;28;20246;-77
2020/12/17 08:06:11;;;;;;;18.63;17.45;;;6.60;89.30;;;;;;5011926;28;20222;-77
2020/12/17 08:08:38;;;;;;;17.95;16.95;;;6.80;88.70;;;;;;5012474;28;20202;-77
2020/12/17 08:11:05;;;;;;;18.60;17.50;;;6.90;88.00;;;;;;5012567;28;20190;-77
2020/12/17 08:13:32;;;;;;;19.05;17.95;;;7.00;87.70;;;;;;5012315;28;20194;-77
2020/12/17 08:16:00;;;;;;;19.10;17.67;;;7.00;87.10;;;;;;5011944;28;20773;-77
2020/12/17 08:18:27;;;;;;;18.65;17.65;;;7.10;87.00;;;;;;5009752;28;20200;-77
2020/12/17 08:21:07;;;;;;;19.70;18.60;;;7.20;86.90;;;;;;5012372;28;20553;-77
2020/12/17 08:23:38;;;;;;;17.90;16.95;;;7.30;86.50;;;;;;5012168;28;20190;-77
2020/12/17 08:26:07;;;;;;;20.50;19.38;;;7.30;86.40;;;;;;4992625;28;20199;-77
2020/12/17 08:28:35;;;;;;;19.13;17.98;;;7.30;86.10;;;;;;4992938;28;20202;-77
2020/12/17 08:31:07;;;;;;;20.05;18.95;;;7.40;86.00;;;;;;4994342;28;20199;-77
2020/12/17 08:33:36;;;;;;;18.88;17.75;;;7.40;86.00;;;;;;5013907;28;20201;-77
2020/12/17 08:36:06;;;;;;;17.90;16.90;;;7.40;86.40;;;;;;5015743;28;20198;-77
2020/12/17 08:38:33;;;;;;;19.65;18.45;;;7.50;86.20;;;;;;5015836;28;20679;-77
2020/12/17 08:41:02;;;;;;;19.10;17.98;;;7.50;86.50;;;;;;5015389;28;20300;-77
2020/12/17 08:43:33;;;;;;;20.10;18.95;;;7.50;86.20;;;;;;5015596;28;20568;-77
2020/12/17 08:46:00;;;;;;;20.13;18.90;;;7.60;85.80;;;;;;5015514;28;20209;-77
2020/12/17 08:48:30;;;;;;;20.60;19.30;;;7.70;85.30;;;;;;5015738;28;20198;-77
2020/12/17 08:50:58;;;;;;;18.83;17.73;;;7.80;85.00;;;;;;5015507;28;20194;-77
2020/12/17 08:53:27;;;;;;;19.30;18.20;;;7.80;85.30;;;;;;5015256;28;20201;-77
2020/12/17 08:56:16;;;;;;;19.33;17.92;;;7.80;85.30;;;;;;5015179;28;20692;-77
2020/12/17 08:58:49;;;;;;;18.20;16.98;;;7.90;85.30;;;;;;5009929;28;20190;-77
2020/12/17 09:01:18;;;;;;;21.00;19.70;;;7.90;86.60;;;;;;5015277;28;20259;-76
2020/12/17 09:03:46;;;;;;;21.23;20.00;;;8.00;85.30;;;;;;5015197;28;20194;-77
2020/12/17 09:06:13;;;;;;;21.85;20.27;;;8.10;84.80;;;;;;5015211;28;20229;-77
2020/12/17 09:08:40;;;;;;;21.10;19.80;;;8.10;84.10;;;;;;5014991;28;20197;-77
2020/12/17 09:11:27;;;;;;;23.30;21.17;;;8.20;83.90;;;;;;5015362;28;20201;-77
2020/12/17 09:13:58;;;;;;;20.75;19.27;;;8.20;84.20;;;;;;4995653;28;20201;-77
2020/12/17 09:16:27;;;;;;;21.05;19.80;;;8.20;85.20;;;;;;4995587;28;20569;-77
2020/12/17 09:18:56;;;;;;;21.90;20.60;;;8.30;85.50;;;;;;5012021;28;20598;-77
2020/12/17 09:21:23;;;;;;;20.70;19.60;;;8.30;84.50;;;;;;5014818;28;20941;-77
2020/12/17 09:23:59;;;;;;;22.95;21.35;;;8.30;83.80;;;;;;5016494;28;20202;-77
2020/12/17 09:26:26;;;;;;;21.88;20.23;;;8.30;83.50;;;;;;5020299;28;20218;-77
2020/12/17 09:28:56;;;;;;;22.27;20.50;;;8.30;83.70;;;;;;5014783;28;20234;-77
2020/12/17 09:31:31;;;;;;;22.15;20.92;;;8.30;83.30;;;;;;5014576;28;20197;-77
2020/12/17 09:34:12;;;;;;;21.52;20.30;;;8.30;82.90;;;;;;5014715;28;20217;-77
2020/12/17 09:36:41;;;;;;;21.95;20.60;;;8.30;83.10;;;;;;5014605;28;20221;-77
2020/12/17 09:39:10;;;;;;;21.40;20.05;;;8.30;83.30;;;;;;5014150;28;20194;-78
2020/12/17 09:41:37;;;;;;;22.33;20.75;;;8.30;83.20;;;;;;5013885;28;20568;-78
2020/12/17 09:44:04;;;;;;;21.00;19.58;;;8.20;83.20;;;;;;5014777;28;20198;-78
2020/12/17 09:46:44;;;;;;;20.65;19.45;;;8.20;83.40;;;;;;5014498;28;20222;-78
2020/12/17 09:49:25;;;;;;;20.83;19.52;;;8.20;83.30;;;;;;5014177;28;20194;-78
2020/12/17 09:52:02;;;;;;;21.60;20.40;;;8.20;83.60;;;;;;5014477;28;20186;-78
2020/12/17 09:54:29;;;;;;;20.63;19.42;;;8.30;83.50;;;;;;5014572;28;20280;-78
2020/12/17 09:57:06;;;;;;;21.50;20.10;;;8.30;83.20;;;;;;5014345;28;20713;-77
2020/12/17 09:59:33;;;;;;;21.30;19.65;;;8.40;83.20;;;;;;5014317;28;20190;-78
2020/12/17 10:02:00;;;;;;;22.33;20.75;;;8.50;83.10;;;;;;5014631;28;20265;-77
2020/12/17 10:04:28;;;;;;;22.50;21.20;;;8.50;82.90;;;;;;5016244;28;20194;-78
2020/12/17 10:06:55;;;;;;;22.13;20.02;;;8.60;83.10;;;;;;5018327;28;20220;-78
2020/12/17 10:09:21;;;;;;;22.05;20.58;;;8.60;83.10;;;;;;5014499;28;20204;-78
2020/12/17 10:11:50;;;;;;;22.42;21.13;;;8.70;83.90;;;;;;5014379;28;20198;-78
2020/12/17 10:14:16;;;;;;;21.35;20.15;;;8.80;83.40;;;;;;5014263;28;20212;-78
2020/12/17 10:16:43;;;;;;;21.58;20.38;;;9.00;82.50;;;;;;5013635;28;20222;-78
2020/12/17 10:19:09;;;;;;;21.45;20.15;;;9.10;82.10;;;;;;5013866;28;20198;-78
2020/12/17 10:21:36;;;;;;;22.63;20.80;;;9.20;81.70;;;;;;5013495;28;20780;-78
2020/12/17 10:24:03;;;;;;;20.63;19.47;;;9.30;81.80;;;;;;5013668;28;20208;-78
2020/12/17 10:26:30;;;;;;;21.23;20.03;;;9.40;81.70;;;;;;5013763;28;20557;-78
2020/12/17 10:28:57;;;;;;;21.08;19.88;;;9.50;81.30;;;;;;5013802;28;20823;-78
2020/12/17 10:31:24;;;;;;;22.13;20.93;;;9.60;81.30;;;;;;5015348;28;20190;-79
2020/12/17 10:33:50;;;;;;;24.20;22.57;;;9.70;82.40;;;;;;5020413;28;20469;-78
2020/12/17 10:36:16;;;;;;;23.97;22.33;;;9.80;81.50;;;;;;5020230;28;20476;-78
2020/12/17 10:38:44;;;;;;;22.97;21.47;;;10.00;80.50;;;;;;5014566;28;20451;-78
2020/12/17 10:41:10;;;;;;;22.33;20.93;;;10.00;80.10;;;;;;5013963;28;20476;-78
2020/12/17 10:43:37;;;;;;;24.40;22.73;;;10.00;80.20;;;;;;5014153;28;20460;-78
2020/12/17 10:46:03;;;;;;;23.00;21.60;;;10.10;79.80;;;;;;5014377;28;20457;-78
2020/12/17 10:48:29;;;;;;;23.47;21.87;;;10.10;80.10;;;;;;5013970;28;20448;-78
2020/12/17 10:50:56;;;;;;;23.80;22.23;;;10.10;80.00;;;;;;5015440;28;20525;-78
2020/12/17 10:53:22;;;;;;;24.20;22.70;;;10.20;79.60;;;;;;5015537;28;20444;-78
2020/12/17 10:55:49;;;;;;;22.23;20.80;;;10.20;79.70;;;;;;5014386;28;20452;-78
2020/12/17 10:58:16;;;;;;;24.00;22.40;;;10.20;79.50;;;;;;5015171;28;20455;-78
2020/12/17 11:00:42;;;;;;;24.73;23.03;;;10.40;79.20;;;;;;5015759;28;20798;-78
2020/12/17 11:03:09;;;;;;;24.63;22.73;;;10.50;78.90;;;;;;5015283;28;20480;-78
2020/12/17 11:05:35;;;;;;;24.23;22.27;;;10.70;78.80;;;;;;5015041;28;21353;-78
2020/12/17 11:08:03;;;;;;;23.77;22.00;;;10.80;78.80;;;;;;5014752;28;20468;-78
2020/12/17 11:10:29;;;;;;;21.20;19.50;;;11.00;78.10;;;;;;5014368;28;20450;-78
2020/12/17 11:12:56;;;;;;;23.17;21.77;;;11.10;77.70;;;;;;5013358;28;20456;-78
2020/12/17 11:15:22;;;;;;;23.33;21.93;;;11.20;78.00;;;;;;5013181;28;20460;-78
2020/12/17 11:17:49;;;;;;;23.90;22.30;;;11.30;77.20;;;;;;5013103;28;20476;-78
2020/12/17 11:20:18;;;;;;;23.33;22.00;;;11.40;77.30;;;;;;5018905;28;20594;-78
2020/12/17 11:22:44;;;;;;;24.47;22.97;;;11.50;76.60;;;;;;5015369;28;20469;-78
2020/12/17 11:25:11;;;;;;;23.47;22.07;;;11.50;76.50;;;;;;5014290;28;20482;-78
2020/12/17 11:27:38;;;;;;;24.43;22.60;;;11.60;76.20;;;;;;5014069;28;20475;-78
2020/12/17 11:30:07;;;;;;;23.00;21.37;;;11.60;76.20;;;;;;5012883;28;20546;-78
2020/12/17 11:32:33;;;;;;;23.07;21.67;;;11.70;76.30;;;;;;5012908;28;20954;-78
2020/12/17 11:35:05;;;;;;;23.87;22.40;;;11.70;75.70;;;;;;5012360;28;20461;-79
2020/12/17 11:37:32;;;;;;;24.10;22.50;;;11.70;75.70;;;;;;5012846;28;20472;-78
2020/12/17 11:39:59;;;;;;;23.60;22.23;;;11.70;75.70;;;;;;5012510;28;20831;-78
2020/12/17 11:42:25;;;;;;;23.73;22.43;;;11.60;76.30;;;;;;5012541;28;21000;-78
2020/12/17 11:44:51;;;;;;;22.83;21.53;;;11.70;76.20;;;;;;5012574;28;20484;-78
2020/12/17 11:47:18;;;;;;;23.77;22.40;;;11.70;76.00;;;;;;5012533;28;20484;-78
2020/12/17 11:49:45;;;;;;;24.03;22.60;;;11.70;76.00;;;;;;5012525;28;20456;-78
2020/12/17 11:52:11;;;;;;;23.87;22.47;;;11.80;75.20;;;;;;5012775;28;20931;-78
2020/12/17 11:54:38;;;;;;;24.90;23.30;;;11.80;75.50;;;;;;5012408;28;21017;-79
2020/12/17 11:57:04;;;;;;;24.70;23.20;;;11.80;75.20;;;;;;5012533;28;20477;-78
2020/12/17 11:59:30;;;;;;;24.73;23.03;;;11.80;75.10;;;;;;5012744;28;20797;-79
2020/12/17 12:01:57;;;;;;;23.53;22.20;;;11.90;74.70;;;;;;5012580;28;20473;-78
2020/12/17 12:04:24;;;;;;;25.07;23.57;;;11.90;74.50;;;;;;5013191;28;20453;-78
2020/12/17 12:06:51;;;;;;;23.90;22.40;;;11.90;75.40;;;;;;5016297;28;20524;-78
2020/12/17 12:09:18;;;;;;;23.93;22.37;;;11.90;75.70;;;;;;5016515;28;20456;-78
2020/12/17 12:11:45;;;;;;;25.27;23.77;;;11.90;75.40;;;;;;5016401;28;20552;-78
2020/12/17 12:14:12;;;;;;;24.17;22.73;;;11.90;75.00;;;;;;5015908;28;20444;-78
2020/12/17 12:16:39;;;;;;;25.20;23.70;;;11.80;75.40;;;;;;5015971;28;20469;-78
2020/12/17 12:19:05;;;;;;;23.77;22.37;;;11.80;75.60;;;;;;5015810;28;20460;-78
2020/12/17 12:21:33;;;;;;;24.30;22.90;;;11.80;76.10;;;;;;5015882;28;20540;-78
2020/12/17 12:23:59;;;;;;;24.40;22.87;;;11.70;76.30;;;;;;5015989;28;20882;-78
2020/12/17 12:26:26;;;;;;;24.23;22.83;;;11.70;76.20;;;;;;5015822;28;20966;-78
2020/12/17 12:28:52;;;;;;;24.70;23.20;;;11.80;76.10;;;;;;5016222;28;20463;-78
2020/12/17 12:31:18;;;;;;;24.77;23.17;;;11.90;76.10;;;;;;5015920;28;20452;-78
2020/12/17 12:33:45;;;;;;;25.40;23.80;;;12.00;76.00;;;;;;5015716;28;20472;-79
2020/12/17 12:36:12;;;;;;;45.40;41.33;;;12.00;76.10;;;;;;5015269;28;20469;-78
2020/12/17 12:38:40;;;;;;;33.33;30.87;;;12.00;77.10;;;;;;5015397;28;20483;-78
2020/12/17 12:41:06;;;;;;;29.50;27.50;;;12.10;77.40;;;;;;5015723;28;20449;-78